Time;durP1;ratioP1;P1;durP2;ratioP2;P2;SDS_P1;SDS_P2;PMS_P1;PMS_P2;Temp;Humidity;BMP_temperature;BMP_pressure;BME280_temperature;BME280_humidity;BME280_pressure;Samples;Min_cycle;Max_cycle;Signal;HPM_P1;HPM_P2
2021/12/09 00:01:01;;;;;;;12.43;6.45;;;2.40;99.90;;;;;;5134882;27;20071;-69
2021/12/09 00:03:29;;;;;;;11.15;6.13;;;2.40;99.90;;;;;;5134858;27;20053;-68
2021/12/09 00:05:59;;;;;;;13.30;6.57;;;2.40;99.90;;;;;;5135643;27;20035;-68
2021/12/09 00:08:28;;;;;;;11.30;7.15;;;2.30;99.90;;;;;;5136053;27;20042;-68
2021/12/09 00:10:56;;;;;;;13.15;6.57;;;2.20;99.90;;;;;;5135878;27;20082;-68
2021/12/09 00:13:24;;;;;;;12.55;6.95;;;2.20;99.90;;;;;;5135858;27;20043;-68
2021/12/09 00:15:50;;;;;;;10.80;6.82;;;2.30;99.90;;;;;;5134108;27;20071;-68
2021/12/09 00:18:16;;;;;;;11.07;7.05;;;2.20;99.90;;;;;;5135374;27;20035;-68
2021/12/09 00:20:42;;;;;;;14.30;6.90;;;2.20;99.90;;;;;;5136066;27;20082;-68
2021/12/09 00:23:08;;;;;;;15.05;7.25;;;2.20;99.90;;;;;;5135924;27;20078;-68
2021/12/09 00:25:35;;;;;;;12.48;6.88;;;2.20;99.90;;;;;;5135294;27;20072;-68
2021/12/09 00:28:01;;;;;;;10.13;6.85;;;2.30;99.90;;;;;;5135356;27;20392;-68
2021/12/09 00:30:29;;;;;;;14.07;6.90;;;2.20;99.90;;;;;;5135314;27;20460;-68
2021/12/09 00:32:55;;;;;;;13.50;7.03;;;2.20;99.90;;;;;;5134251;27;20114;-68
2021/12/09 00:35:27;;;;;;;12.07;7.50;;;2.20;99.90;;;;;;5135257;27;20126;-68
2021/12/09 00:38:00;;;;;;;10.48;6.80;;;2.30;99.90;;;;;;5133892;27;20035;-68
2021/12/09 00:40:26;;;;;;;10.88;7.65;;;2.30;99.90;;;;;;5134013;27;20043;-68
2021/12/09 00:42:52;;;;;;;10.40;7.32;;;2.20;99.90;;;;;;5133915;27;20401;-68
2021/12/09 00:45:18;;;;;;;18.10;8.38;;;2.30;99.90;;;;;;5135217;27;20031;-68
2021/12/09 00:47:44;;;;;;;14.52;8.23;;;2.30;99.90;;;;;;5134688;27;20047;-68
2021/12/09 00:50:10;;;;;;;12.15;8.32;;;2.30;99.90;;;;;;5133696;27;20035;-68
2021/12/09 00:52:36;;;;;;;10.65;7.05;;;2.20;99.90;;;;;;5135274;27;20136;-68
2021/12/09 00:55:04;;;;;;;14.75;9.50;;;2.20;99.90;;;;;;5135052;27;20403;-68
2021/12/09 00:57:30;;;;;;;15.80;7.90;;;2.20;99.90;;;;;;5133539;27;20469;-68
2021/12/09 00:59:56;;;;;;;16.13;7.45;;;2.20;99.90;;;;;;5135231;27;20042;-68
2021/12/09 01:02:21;;;;;;;14.50;7.20;;;2.20;99.90;;;;;;5135331;27;20031;-68
2021/12/09 01:04:47;;;;;;;15.10;7.90;;;2.20;99.90;;;;;;5135127;27;20465;-68
2021/12/09 01:07:14;;;;;;;12.80;8.45;;;2.20;99.90;;;;;;5134519;27;20034;-68
2021/12/09 01:09:40;;;;;;;13.30;7.85;;;2.20;99.90;;;;;;5135108;27;20384;-68
2021/12/09 01:12:07;;;;;;;19.35;8.27;;;2.20;99.90;;;;;;5135114;27;20031;-69
2021/12/09 01:14:36;;;;;;;12.95;8.82;;;2.20;99.90;;;;;;5133303;27;20039;-68
2021/12/09 01:17:06;;;;;;;16.73;8.20;;;2.10;99.90;;;;;;5134180;27;20035;-68
2021/12/09 01:19:32;;;;;;;13.35;8.23;;;2.20;99.90;;;;;;5134793;27;20076;-68
2021/12/09 01:21:58;;;;;;;16.48;8.10;;;2.10;99.90;;;;;;5134729;27;20035;-68
2021/12/09 01:24:23;;;;;;;12.80;7.82;;;2.10;99.90;;;;;;5133409;27;20039;-68
2021/12/09 01:26:50;;;;;;;14.57;7.95;;;2.10;99.90;;;;;;5134223;27;20091;-68
2021/12/09 01:29:20;;;;;;;15.45;7.93;;;2.10;99.90;;;;;;5134562;27;20039;-68
2021/12/09 01:31:55;;;;;;;10.80;7.93;;;2.10;99.90;;;;;;5115338;27;20051;-68
2021/12/09 01:34:21;;;;;;;14.45;7.68;;;2.10;99.90;;;;;;5134304;27;20496;-68
2021/12/09 01:36:49;;;;;;;14.77;8.93;;;2.00;99.90;;;;;;5134196;27;20046;-68
2021/12/09 01:39:15;;;;;;;15.43;8.73;;;2.10;99.90;;;;;;5134236;27;20488;-68
2021/12/09 01:41:41;;;;;;;16.55;8.25;;;2.10;99.90;;;;;;5134720;27;20117;-68
2021/12/09 01:44:07;;;;;;;13.75;7.70;;;2.00;99.90;;;;;;5134367;27;20031;-68
2021/12/09 01:46:33;;;;;;;15.70;7.65;;;2.10;99.90;;;;;;5132445;28;20047;-68
2021/12/09 01:48:59;;;;;;;12.57;7.72;;;2.10;99.90;;;;;;5133012;28;20043;-68
2021/12/09 01:51:25;;;;;;;17.90;8.30;;;2.10;99.90;;;;;;5134414;27;20116;-68
2021/12/09 01:53:51;;;;;;;17.05;9.82;;;2.10;99.90;;;;;;5132882;28;20047;-68
2021/12/09 01:56:21;;;;;;;13.32;7.70;;;2.00;99.90;;;;;;5133833;28;20039;-68
2021/12/09 01:58:48;;;;;;;15.15;8.35;;;2.00;99.90;;;;;;5134383;27;20043;-68
2021/12/09 02:01:14;;;;;;;21.92;9.55;;;2.00;99.90;;;;;;5134091;27;20031;-68
2021/12/09 02:03:40;;;;;;;15.77;8.13;;;2.00;99.90;;;;;;5134176;28;20564;-68
2021/12/09 02:06:05;;;;;;;15.88;8.25;;;1.90;99.90;;;;;;5132971;28;20068;-68
2021/12/09 02:08:31;;;;;;;15.35;9.38;;;2.00;99.90;;;;;;5134372;28;20039;-68
2021/12/09 02:10:57;;;;;;;13.15;7.43;;;1.90;99.90;;;;;;5134152;27;20462;-68
2021/12/09 02:13:22;;;;;;;19.00;9.27;;;1.90;99.90;;;;;;5133135;28;20358;-68
2021/12/09 02:15:51;;;;;;;14.25;9.07;;;1.90;99.90;;;;;;5133495;28;20028;-68
2021/12/09 02:18:17;;;;;;;16.77;8.85;;;1.90;99.90;;;;;;5132893;28;20039;-68
2021/12/09 02:20:44;;;;;;;16.30;8.73;;;1.90;99.90;;;;;;5134107;27;20511;-68
2021/12/09 02:23:12;;;;;;;12.10;8.23;;;1.90;99.90;;;;;;5133743;27;20442;-68
2021/12/09 02:25:44;;;;;;;15.50;8.48;;;1.90;99.90;;;;;;5133391;27;20035;-68
2021/12/09 02:28:12;;;;;;;12.63;8.18;;;1.90;99.90;;;;;;5133679;27;20035;-68
2021/12/09 02:30:37;;;;;;;17.35;9.43;;;1.90;99.90;;;;;;5134026;27;20041;-68
2021/12/09 02:33:03;;;;;;;14.50;9.60;;;1.80;99.90;;;;;;5133724;27;20039;-68
2021/12/09 02:35:29;;;;;;;11.60;8.15;;;1.80;99.90;;;;;;5133011;28;20370;-68
2021/12/09 02:37:55;;;;;;;17.00;9.32;;;1.80;99.90;;;;;;5132582;28;20050;-68
2021/12/09 02:40:21;;;;;;;13.35;8.60;;;1.80;99.90;;;;;;5134181;28;20455;-68
2021/12/09 02:42:47;;;;;;;14.55;8.93;;;1.80;99.90;;;;;;5135518;27;20046;-68
2021/12/09 02:45:13;;;;;;;16.52;8.77;;;1.80;99.90;;;;;;5137681;27;20079;-68
2021/12/09 02:47:39;;;;;;;16.42;9.32;;;1.70;99.90;;;;;;5136044;27;20042;-68
2021/12/09 02:50:06;;;;;;;19.48;9.32;;;1.80;99.90;;;;;;5137644;27;20480;-68
2021/12/09 02:52:32;;;;;;;14.25;9.40;;;1.80;99.90;;;;;;5137216;27;20035;-68
2021/12/09 02:54:58;;;;;;;16.58;9.13;;;1.80;99.90;;;;;;5136093;27;20050;-68
2021/12/09 02:57:24;;;;;;;12.50;8.77;;;1.80;99.90;;;;;;5136856;27;20099;-68
2021/12/09 02:59:49;;;;;;;14.68;9.15;;;1.80;99.90;;;;;;5137370;27;20031;-68
2021/12/09 03:02:15;;;;;;;19.30;8.23;;;1.80;99.90;;;;;;5135905;27;20202;-68
2021/12/09 03:04:43;;;;;;;18.42;9.68;;;1.80;99.90;;;;;;5137212;27;20063;-68
2021/12/09 03:07:23;;;;;;;14.65;9.63;;;1.80;99.90;;;;;;5135362;27;20496;-68
2021/12/09 03:09:55;;;;;;;14.68;9.60;;;1.80;99.90;;;;;;5136443;27;20051;-68
2021/12/09 03:12:33;;;;;;;17.08;10.65;;;1.80;99.90;;;;;;5137322;27;20190;-68
2021/12/09 03:15:02;;;;;;;13.82;10.48;;;1.80;99.90;;;;;;5136817;27;20039;-68
2021/12/09 03:17:28;;;;;;;15.35;9.43;;;1.80;99.90;;;;;;5136501;27;20032;-68
2021/12/09 03:19:54;;;;;;;15.50;8.73;;;1.80;99.90;;;;;;5135498;27;20046;-68
2021/12/09 03:22:21;;;;;;;13.20;8.65;;;1.80;99.90;;;;;;5135488;27;20435;-68
2021/12/09 03:24:47;;;;;;;15.98;8.77;;;1.80;99.90;;;;;;5136735;27;20122;-68
2021/12/09 03:27:13;;;;;;;16.33;9.10;;;1.80;99.90;;;;;;5136121;27;20520;-68
2021/12/09 03:29:40;;;;;;;13.23;9.85;;;1.80;99.90;;;;;;5136786;27;20118;-68
2021/12/09 03:32:10;;;;;;;12.57;9.55;;;1.80;99.90;;;;;;5136688;27;20104;-68
2021/12/09 03:34:37;;;;;;;15.57;9.63;;;1.70;99.90;;;;;;5135837;27;20054;-68
2021/12/09 03:37:08;;;;;;;13.93;9.18;;;1.70;99.90;;;;;;5136380;27;20039;-68
2021/12/09 03:39:36;;;;;;;17.83;9.60;;;1.70;99.90;;;;;;5135194;27;20040;-68
2021/12/09 03:42:05;;;;;;;15.75;9.85;;;1.70;99.90;;;;;;5136596;27;20422;-68
2021/12/09 03:44:31;;;;;;;17.02;10.20;;;1.70;99.90;;;;;;5136885;27;20078;-68
2021/12/09 03:47:01;;;;;;;19.80;10.57;;;1.70;99.90;;;;;;5136048;27;20071;-68
2021/12/09 03:49:27;;;;;;;16.63;9.70;;;1.70;99.90;;;;;;5136264;27;20054;-68
2021/12/09 03:51:54;;;;;;;18.95;9.80;;;1.70;99.90;;;;;;5136267;27;20465;-68
2021/12/09 03:54:20;;;;;;;19.38;10.63;;;1.70;99.90;;;;;;5134058;27;20050;-68
2021/12/09 03:56:46;;;;;;;18.85;10.95;;;1.60;99.90;;;;;;5134736;27;20557;-68
2021/12/09 03:59:12;;;;;;;13.50;9.15;;;1.70;99.90;;;;;;5134757;27;20153;-68
2021/12/09 04:01:40;;;;;;;15.80;11.07;;;1.70;99.90;;;;;;5136259;27;20046;-68
2021/12/09 04:04:06;;;;;;;14.25;10.45;;;1.70;99.90;;;;;;5136128;27;20118;-68
2021/12/09 04:06:33;;;;;;;17.83;10.55;;;1.70;99.90;;;;;;5135683;27;20469;-68
2021/12/09 04:08:59;;;;;;;16.90;10.77;;;1.60;99.90;;;;;;5135806;27;20613;-68
2021/12/09 04:11:25;;;;;;;18.23;11.10;;;1.70;99.90;;;;;;5135999;27;20054;-68
2021/12/09 04:13:51;;;;;;;18.48;10.63;;;1.60;99.90;;;;;;5135867;27;20043;-68
2021/12/09 04:16:17;;;;;;;19.05;11.32;;;1.60;99.90;;;;;;5135497;27;20514;-68
2021/12/09 04:18:44;;;;;;;18.50;11.52;;;1.60;99.90;;;;;;5135477;27;20446;-68
2021/12/09 04:21:10;;;;;;;17.75;11.02;;;1.70;99.90;;;;;;5135742;27;20035;-68
2021/12/09 04:23:36;;;;;;;18.70;11.32;;;1.60;99.90;;;;;;5135877;27;20084;-68
2021/12/09 04:26:02;;;;;;;19.73;11.80;;;1.70;99.90;;;;;;5133772;27;20512;-68
2021/12/09 04:28:28;;;;;;;23.75;12.73;;;1.60;99.90;;;;;;5135346;27;20493;-68
2021/12/09 04:30:54;;;;;;;17.50;12.20;;;1.70;99.90;;;;;;5135567;27;20091;-68
2021/12/09 04:33:20;;;;;;;18.38;11.85;;;1.60;99.90;;;;;;5135749;27;20123;-68
2021/12/09 04:35:45;;;;;;;19.42;12.13;;;1.60;99.90;;;;;;5133702;27;20062;-68
2021/12/09 04:38:11;;;;;;;21.65;11.13;;;1.60;99.90;;;;;;5135563;27;20035;-68
2021/12/09 04:40:37;;;;;;;20.75;13.30;;;1.60;99.90;;;;;;5134259;27;20050;-68
2021/12/09 04:43:04;;;;;;;20.00;11.75;;;1.60;99.90;;;;;;5135509;27;20122;-68
2021/12/09 04:45:33;;;;;;;22.88;13.15;;;1.50;99.90;;;;;;5116768;27;20511;-68
2021/12/09 04:47:59;;;;;;;25.15;13.57;;;1.50;99.90;;;;;;5135222;27;20039;-68
2021/12/09 04:50:25;;;;;;;21.13;12.77;;;1.50;99.90;;;;;;5135477;27;20031;-68
2021/12/09 04:52:51;;;;;;;19.23;12.63;;;1.50;99.90;;;;;;5135312;27;20374;-68
2021/12/09 04:55:17;;;;;;;19.08;12.98;;;1.50;99.90;;;;;;5133891;27;20046;-68
2021/12/09 04:57:43;;;;;;;21.63;13.00;;;1.60;99.90;;;;;;5134699;27;20088;-68
2021/12/09 05:00:13;;;;;;;21.27;13.25;;;1.60;99.90;;;;;;5135027;27;20039;-68
2021/12/09 05:05:05;;;;;;;26.92;13.60;;;1.50;99.90;;;;;;5134851;27;20223;-68
2021/12/09 05:07:31;;;;;;;29.98;13.25;;;1.50;99.90;;;;;;5132900;27;20035;-68
2021/12/09 05:09:56;;;;;;;17.00;12.43;;;1.50;99.90;;;;;;5133626;27;20039;-68
2021/12/09 05:12:22;;;;;;;17.95;12.18;;;1.50;99.90;;;;;;5134660;27;20035;-68
2021/12/09 05:14:48;;;;;;;21.98;12.85;;;1.50;99.90;;;;;;5134711;27;20450;-68
2021/12/09 05:17:16;;;;;;;22.23;13.07;;;1.50;99.90;;;;;;5132999;27;20039;-68
2021/12/09 05:19:42;;;;;;;18.83;11.93;;;1.50;99.90;;;;;;5133162;27;20087;-68
2021/12/09 05:22:08;;;;;;;18.90;12.25;;;1.60;99.90;;;;;;5134602;27;20038;-68
2021/12/09 05:24:34;;;;;;;22.13;12.65;;;1.60;99.90;;;;;;5134230;27;20031;-68
2021/12/09 05:27:00;;;;;;;18.88;12.15;;;1.60;99.90;;;;;;5133777;27;20078;-69
2021/12/09 05:29:32;;;;;;;20.33;13.07;;;1.60;99.90;;;;;;5116371;27;20049;-69
2021/12/09 05:32:07;;;;;;;18.42;12.13;;;1.60;99.90;;;;;;5134992;27;20054;-68
2021/12/09 05:34:39;;;;;;;19.83;11.80;;;1.60;99.90;;;;;;5134691;27;20043;-68
2021/12/09 05:37:06;;;;;;;20.08;12.57;;;1.60;99.90;;;;;;5132918;27;20114;-68
2021/12/09 05:39:32;;;;;;;21.33;12.50;;;1.60;99.90;;;;;;5116428;27;20100;-68
2021/12/09 05:41:58;;;;;;;21.80;12.13;;;1.60;99.90;;;;;;5134245;27;20098;-68
2021/12/09 05:44:23;;;;;;;22.88;12.07;;;1.50;99.90;;;;;;5134393;27;20039;-68
2021/12/09 05:46:49;;;;;;;20.65;13.15;;;1.50;99.90;;;;;;5134011;28;20050;-68
2021/12/09 05:49:15;;;;;;;22.73;13.15;;;1.50;99.90;;;;;;5134249;28;20031;-68
2021/12/09 05:51:43;;;;;;;18.85;11.20;;;1.50;99.90;;;;;;5134319;27;20122;-68
2021/12/09 05:54:08;;;;;;;22.27;11.82;;;1.60;99.90;;;;;;5132822;28;20046;-68
2021/12/09 05:56:35;;;;;;;23.58;12.68;;;1.60;99.90;;;;;;5134263;27;20035;-68
2021/12/09 05:59:02;;;;;;;16.60;11.75;;;1.50;99.90;;;;;;5133981;27;20046;-68
2021/12/09 06:01:28;;;;;;;17.30;11.25;;;1.50;99.90;;;;;;5134453;27;20044;-68
2021/12/09 06:03:53;;;;;;;20.95;12.90;;;1.60;99.90;;;;;;5132848;28;20047;-68
2021/12/09 06:06:19;;;;;;;19.38;12.10;;;1.50;99.90;;;;;;5133993;28;20126;-68
2021/12/09 06:08:46;;;;;;;27.20;13.80;;;1.50;99.90;;;;;;5134171;27;20043;-68
2021/12/09 06:11:12;;;;;;;22.23;14.07;;;1.50;99.90;;;;;;5134149;27;20051;-68
2021/12/09 06:13:38;;;;;;;21.80;11.52;;;1.40;99.90;;;;;;5132935;28;20035;-68
2021/12/09 06:16:07;;;;;;;25.77;13.52;;;1.40;99.90;;;;;;5132754;27;20039;-68
2021/12/09 06:18:32;;;;;;;23.63;13.77;;;1.40;99.90;;;;;;5138062;27;20384;-68
2021/12/09 06:20:58;;;;;;;22.85;13.20;;;1.30;99.90;;;;;;5137935;27;20041;-70
2021/12/09 06:23:24;;;;;;;18.92;12.40;;;1.40;99.90;;;;;;5137896;27;20043;-68
2021/12/09 06:25:50;;;;;;;21.13;12.30;;;1.40;99.90;;;;;;5136392;27;20039;-68
2021/12/09 06:28:17;;;;;;;19.85;13.55;;;1.40;99.90;;;;;;5136572;27;20047;-68
2021/12/09 06:30:44;;;;;;;19.60;12.15;;;1.40;99.90;;;;;;5119520;27;20083;-68
2021/12/09 06:33:09;;;;;;;24.00;13.57;;;1.40;99.90;;;;;;5138021;27;20497;-69
2021/12/09 06:35:36;;;;;;;17.25;12.10;;;1.40;99.90;;;;;;5138016;27;20046;-68
2021/12/09 06:38:03;;;;;;;21.80;13.10;;;1.30;99.90;;;;;;5136397;27;20086;-69
2021/12/09 06:40:29;;;;;;;20.67;12.57;;;1.30;99.90;;;;;;5136803;27;20050;-69
2021/12/09 06:42:56;;;;;;;19.77;13.20;;;1.40;99.90;;;;;;5137467;27;20031;-69
2021/12/09 06:45:22;;;;;;;22.60;12.98;;;1.30;99.90;;;;;;5136802;27;20491;-69
2021/12/09 06:47:49;;;;;;;21.65;14.70;;;1.40;99.90;;;;;;5135785;27;20047;-69
2021/12/09 06:50:16;;;;;;;22.13;12.50;;;1.30;99.90;;;;;;5136517;27;20047;-69
2021/12/09 06:52:42;;;;;;;15.55;12.02;;;1.30;99.90;;;;;;5137341;27;20492;-68
2021/12/09 06:55:10;;;;;;;21.65;12.63;;;1.30;99.90;;;;;;5137531;27;20043;-69
2021/12/09 06:57:38;;;;;;;21.20;12.68;;;1.30;99.90;;;;;;5136963;27;20058;-69
2021/12/09 07:00:07;;;;;;;18.17;13.07;;;1.30;99.90;;;;;;5137334;27;20084;-68
2021/12/09 07:02:33;;;;;;;19.70;12.73;;;1.30;99.90;;;;;;5137401;27;20047;-69
2021/12/09 07:04:58;;;;;;;22.63;13.68;;;1.30;99.90;;;;;;5137008;27;20393;-69
2021/12/09 07:07:24;;;;;;;18.98;13.20;;;1.20;99.90;;;;;;5136710;27;20074;-68
2021/12/09 07:09:50;;;;;;;21.63;12.68;;;1.30;99.90;;;;;;5136912;27;20035;-68
2021/12/09 07:12:15;;;;;;;19.77;12.15;;;1.30;99.90;;;;;;5137245;27;20050;-69
2021/12/09 07:14:43;;;;;;;22.27;12.77;;;1.30;99.90;;;;;;5137181;27;20047;-69
2021/12/09 07:17:09;;;;;;;25.77;14.10;;;1.30;99.90;;;;;;5135519;27;20507;-69
2021/12/09 07:19:35;;;;;;;20.40;13.02;;;1.30;99.90;;;;;;5137196;27;20046;-68
2021/12/09 07:22:02;;;;;;;21.80;12.63;;;1.30;99.90;;;;;;5136968;27;20046;-69
2021/12/09 07:24:27;;;;;;;27.10;14.95;;;1.30;99.90;;;;;;5137034;27;20046;-68
2021/12/09 07:26:53;;;;;;;19.95;13.70;;;1.30;99.90;;;;;;5136286;27;20039;-68
2021/12/09 07:29:19;;;;;;;24.23;13.98;;;1.30;99.90;;;;;;5135506;27;20154;-69
2021/12/09 07:31:45;;;;;;;21.98;14.40;;;1.30;99.90;;;;;;5136728;27;20035;-70
2021/12/09 07:34:11;;;;;;;22.98;14.00;;;1.30;99.90;;;;;;5136420;27;20084;-68
2021/12/09 07:36:36;;;;;;;22.13;14.32;;;1.20;99.90;;;;;;5136255;27;20035;-69
2021/12/09 07:39:03;;;;;;;24.58;14.13;;;1.20;99.90;;;;;;5136837;27;20091;-68
2021/12/09 07:41:29;;;;;;;25.67;16.40;;;1.30;99.90;;;;;;5136664;27;20035;-69
2021/12/09 07:43:54;;;;;;;25.83;15.82;;;1.30;99.90;;;;;;5135656;27;20031;-69
2021/12/09 07:46:21;;;;;;;23.42;13.80;;;1.30;99.90;;;;;;5134599;27;20438;-69
2021/12/09 07:48:46;;;;;;;22.42;14.43;;;1.30;99.90;;;;;;5136307;27;20522;-69
2021/12/09 07:51:12;;;;;;;26.40;14.90;;;1.20;99.90;;;;;;5136006;27;20043;-70
2021/12/09 07:53:38;;;;;;;26.85;14.70;;;1.20;99.90;;;;;;5136901;27;20059;-69
2021/12/09 07:56:04;;;;;;;27.58;15.52;;;1.30;99.90;;;;;;5136121;27;20127;-68
2021/12/09 07:58:32;;;;;;;25.08;15.18;;;1.20;99.90;;;;;;5134590;27;20054;-69
2021/12/09 08:00:58;;;;;;;26.98;14.35;;;1.20;99.90;;;;;;5135129;27;20046;-69
2021/12/09 08:03:24;;;;;;;28.73;15.75;;;1.20;99.90;;;;;;5137091;27;20039;-69
2021/12/09 08:05:50;;;;;;;22.90;13.73;;;1.20;99.90;;;;;;5134557;27;20050;-69
2021/12/09 08:08:16;;;;;;;22.13;14.55;;;1.30;99.90;;;;;;5135701;27;20411;-69
2021/12/09 08:10:42;;;;;;;25.33;14.43;;;1.30;99.90;;;;;;5135234;27;20042;-69
2021/12/09 08:13:08;;;;;;;27.73;14.98;;;1.30;99.90;;;;;;5135644;27;20042;-69
2021/12/09 08:15:38;;;;;;;22.90;14.90;;;1.30;99.90;;;;;;5134921;27;20235;-68
2021/12/09 08:20:41;;;;;;;25.50;14.55;;;1.40;99.90;;;;;;5134833;27;20043;-69
2021/12/09 08:23:07;;;;;;;24.58;14.65;;;1.40;99.90;;;;;;5135658;27;20172;-69
2021/12/09 08:25:33;;;;;;;23.88;14.32;;;1.40;99.90;;;;;;5135104;27;20092;-67
2021/12/09 08:27:58;;;;;;;24.88;14.55;;;1.40;99.90;;;;;;5135336;27;20031;-67
2021/12/09 08:30:25;;;;;;;25.45;17.10;;;1.40;99.90;;;;;;5134382;27;20031;-69
2021/12/09 08:32:52;;;;;;;28.08;15.07;;;1.30;99.90;;;;;;5135534;27;20119;-68
2021/12/09 08:35:19;;;;;;;28.88;15.27;;;1.30;99.90;;;;;;5135543;27;20040;-68
2021/12/09 08:37:45;;;;;;;23.60;14.88;;;1.40;99.90;;;;;;5135079;27;20435;-67
2021/12/09 08:40:13;;;;;;;24.77;14.02;;;1.40;99.90;;;;;;5135045;27;20095;-67
2021/12/09 08:42:38;;;;;;;24.92;14.70;;;1.50;99.90;;;;;;5135264;27;20118;-69
2021/12/09 08:45:08;;;;;;;21.95;13.90;;;1.50;99.90;;;;;;5133896;27;20078;-68
2021/12/09 08:47:35;;;;;;;21.48;14.52;;;1.50;99.90;;;;;;5133478;27;20088;-67
2021/12/09 08:50:01;;;;;;;20.42;13.48;;;1.60;99.90;;;;;;5134916;27;20035;-67
2021/12/09 08:52:26;;;;;;;25.77;14.27;;;1.60;99.90;;;;;;5134977;27;20106;-67
2021/12/09 08:54:52;;;;;;;27.08;15.35;;;1.60;99.90;;;;;;5134933;27;20142;-68
2021/12/09 08:57:19;;;;;;;21.42;13.75;;;1.60;99.90;;;;;;5116542;27;20046;-67
2021/12/09 08:59:45;;;;;;;22.23;13.63;;;1.70;99.90;;;;;;5135600;27;20469;-68
2021/12/09 09:02:12;;;;;;;29.33;15.95;;;1.70;99.90;;;;;;5135145;27;20027;-67
2021/12/09 09:04:38;;;;;;;21.42;13.20;;;1.70;99.90;;;;;;5134900;27;20396;-67
2021/12/09 09:07:06;;;;;;;22.63;13.77;;;1.80;99.90;;;;;;5134753;27;20035;-67
2021/12/09 09:09:34;;;;;;;19.40;12.95;;;1.80;99.90;;;;;;5135054;27;20043;-67
2021/12/09 09:12:02;;;;;;;21.98;13.07;;;1.90;99.90;;;;;;5133812;27;20043;-67
2021/12/09 09:14:27;;;;;;;19.25;13.43;;;1.90;99.90;;;;;;5133594;27;20488;-67
2021/12/09 09:16:53;;;;;;;19.58;13.25;;;1.90;99.90;;;;;;5134223;27;20046;-67
2021/12/09 09:19:19;;;;;;;19.80;13.10;;;1.90;99.90;;;;;;5134608;27;20027;-67
2021/12/09 09:21:44;;;;;;;20.75;12.95;;;2.00;99.90;;;;;;5134723;27;20406;-67
2021/12/09 09:24:10;;;;;;;24.65;12.98;;;2.00;99.90;;;;;;5134608;27;20561;-67
2021/12/09 09:26:37;;;;;;;24.48;13.52;;;2.00;99.90;;;;;;5133847;27;20043;-67
2021/12/09 09:29:03;;;;;;;19.73;12.55;;;2.00;99.90;;;;;;5134505;27;20043;-66
2021/12/09 09:31:31;;;;;;;27.15;11.55;;;2.00;99.90;;;;;;5134664;27;20031;-67
2021/12/09 09:34:00;;;;;;;19.45;12.38;;;2.10;99.90;;;;;;5134397;27;20039;-67
2021/12/09 09:36:26;;;;;;;24.05;13.05;;;2.10;99.90;;;;;;5134241;27;20035;-67
2021/12/09 09:38:56;;;;;;;19.25;12.73;;;2.10;99.90;;;;;;5133544;27;20035;-67
2021/12/09 09:41:26;;;;;;;24.35;12.60;;;2.10;99.90;;;;;;5134397;27;20109;-67
2021/12/09 09:43:58;;;;;;;21.25;12.45;;;2.10;99.90;;;;;;5134423;27;20046;-67
2021/12/09 09:46:31;;;;;;;27.80;13.68;;;2.10;99.90;;;;;;5134290;27;20492;-67
2021/12/09 09:48:59;;;;;;;23.50;12.85;;;2.10;99.90;;;;;;5134554;27;20051;-67
2021/12/09 09:51:28;;;;;;;22.40;13.52;;;2.10;99.90;;;;;;5133918;27;20087;-67
2021/12/09 09:53:53;;;;;;;20.88;13.27;;;2.20;99.90;;;;;;5133964;27;20040;-67
2021/12/09 09:56:23;;;;;;;20.83;12.05;;;2.20;99.90;;;;;;5133713;27;20110;-67
2021/12/09 09:58:50;;;;;;;18.40;11.50;;;2.20;99.90;;;;;;5115728;28;20080;-67
2021/12/09 10:01:17;;;;;;;24.30;12.50;;;2.30;99.90;;;;;;5134451;28;20046;-67
2021/12/09 10:03:47;;;;;;;22.77;13.35;;;2.30;99.90;;;;;;5133067;28;20476;-67
2021/12/09 10:06:18;;;;;;;23.98;12.50;;;2.30;99.90;;;;;;5133649;27;20038;-67
2021/12/09 10:08:44;;;;;;;16.20;9.77;;;2.40;99.90;;;;;;5134350;27;20035;-68
2021/12/09 10:11:10;;;;;;;22.10;10.75;;;2.40;99.90;;;;;;5134383;27;20042;-72
2021/12/09 10:13:39;;;;;;;20.25;11.18;;;2.50;99.90;;;;;;5133150;28;20443;-70
2021/12/09 10:16:17;;;;;;;16.23;10.63;;;2.50;99.90;;;;;;5133637;27;20470;-70
2021/12/09 10:18:49;;;;;;;18.10;10.77;;;2.60;99.90;;;;;;5132582;28;20051;-70
2021/12/09 10:21:24;;;;;;;16.98;10.85;;;2.60;99.90;;;;;;5132918;28;20045;-70
2021/12/09 10:24:00;;;;;;;20.90;11.73;;;2.70;99.90;;;;;;5133249;28;20157;-70
2021/12/09 10:26:32;;;;;;;17.83;10.73;;;2.70;99.90;;;;;;5133663;27;20035;-70
2021/12/09 10:29:06;;;;;;;18.27;10.95;;;2.80;99.90;;;;;;5132981;28;20066;-71
2021/12/09 10:31:38;;;;;;;18.73;10.90;;;2.80;99.90;;;;;;5132706;28;20039;-71
2021/12/09 10:34:12;;;;;;;17.98;10.30;;;2.80;99.90;;;;;;5132496;28;20043;-71
2021/12/09 10:36:53;;;;;;;20.67;9.68;;;2.90;99.90;;;;;;5133436;27;20155;-71
2021/12/09 10:39:21;;;;;;;23.70;10.75;;;3.00;99.90;;;;;;5132475;28;20480;-71
2021/12/09 10:41:47;;;;;;;19.73;9.70;;;3.00;99.90;;;;;;5134326;28;20168;-70
2021/12/09 10:44:14;;;;;;;22.55;10.55;;;3.10;99.90;;;;;;5134344;27;20087;-70
2021/12/09 10:46:50;;;;;;;20.95;10.52;;;3.10;99.90;;;;;;5132264;28;20047;-70
2021/12/09 10:49:17;;;;;;;20.92;10.27;;;3.20;99.90;;;;;;5133572;27;20058;-71
2021/12/09 10:51:55;;;;;;;16.95;9.55;;;3.40;99.90;;;;;;5134076;27;20045;-71
2021/12/09 10:54:35;;;;;;;17.20;10.20;;;3.50;99.90;;;;;;5132793;28;20400;-71
2021/12/09 10:57:31;;;;;;;18.75;10.57;;;3.60;99.90;;;;;;5133412;27;20035;-71
2021/12/09 11:00:12;;;;;;;16.92;9.93;;;3.70;99.90;;;;;;5119571;28;20489;-71
2021/12/09 11:02:55;;;;;;;18.95;9.57;;;3.80;99.90;;;;;;5133714;27;20461;-71
2021/12/09 11:05:21;;;;;;;18.75;10.27;;;3.90;99.90;;;;;;5136097;27;20438;-72
2021/12/09 11:07:46;;;;;;;16.90;9.38;;;4.00;99.90;;;;;;5136660;27;20043;-72
2021/12/09 11:10:18;;;;;;;20.25;9.25;;;4.10;99.90;;;;;;5137507;27;20039;-71
2021/12/09 11:12:57;;;;;;;16.63;9.23;;;4.20;99.90;;;;;;5137310;27;20043;-72
2021/12/09 11:16:05;;;;;;;15.13;9.77;;;4.20;99.90;;;;;;5136245;27;20092;-71
2021/12/09 11:18:40;;;;;;;19.58;9.93;;;4.20;99.90;;;;;;5137286;27;20054;-72
2021/12/09 11:21:15;;;;;;;17.80;10.70;;;4.30;99.90;;;;;;5137477;27;20050;-72
2021/12/09 11:23:57;;;;;;;18.45;10.75;;;4.30;99.90;;;;;;5136780;27;20457;-71
2021/12/09 11:26:45;;;;;;;20.30;9.95;;;4.30;99.90;;;;;;5136345;27;20560;-71
2021/12/09 11:29:28;;;;;;;19.73;11.55;;;4.30;99.90;;;;;;5136744;27;20046;-71
2021/12/09 11:34:44;;;;;;;17.65;11.25;;;4.30;99.90;;;;;;5136894;27;20055;-71
2021/12/09 11:37:35;;;;;;;19.17;11.57;;;4.20;99.90;;;;;;5136338;27;20031;-71
2021/12/09 11:40:07;;;;;;;20.35;10.98;;;4.10;99.90;;;;;;5135257;27;20039;-71
2021/12/09 11:42:48;;;;;;;16.10;10.20;;;4.10;99.90;;;;;;5136482;27;20043;-72
2021/12/09 11:45:16;;;;;;;19.42;11.77;;;4.10;99.90;;;;;;5136523;27;20043;-71
2021/12/09 11:47:45;;;;;;;18.88;10.38;;;4.10;99.90;;;;;;5134884;27;20054;-72
2021/12/09 11:50:15;;;;;;;21.15;11.57;;;4.10;99.90;;;;;;5136561;27;20039;-71
2021/12/09 11:52:45;;;;;;;21.92;10.90;;;4.10;99.90;;;;;;5136669;27;20023;-73
2021/12/09 11:55:18;;;;;;;15.65;10.68;;;4.10;99.90;;;;;;5136347;27;20092;-72
2021/12/09 11:57:54;;;;;;;14.37;9.60;;;4.00;99.90;;;;;;5135902;27;20035;-72
2021/12/09 12:07:20;;;;;;;22.23;11.73;;;4.10;99.90;;;;;;5134366;27;20520;-72
2021/12/09 12:18:17;;;;;;;19.55;11.82;;;4.10;99.90;;;;;;5135641;27;20046;-72
2021/12/09 12:20:53;;;;;;;26.73;12.95;;;4.00;99.90;;;;;;5134611;27;20561;-71
2021/12/09 12:30:19;;;;;;;24.48;14.15;;;4.00;99.90;;;;;;5135794;27;20103;-72
2021/12/09 12:32:59;;;;;;;29.40;13.65;;;4.00;99.90;;;;;;5127677;27;20046;-71
2021/12/09 12:41:05;;;;;;;22.33;13.48;;;3.90;99.90;;;;;;5134014;27;20484;-72
2021/12/09 12:43:44;;;;;;;21.55;11.70;;;3.90;99.90;;;;;;5134063;27;20049;-72
2021/12/09 12:51:45;;;;;;;27.90;13.05;;;4.00;99.90;;;;;;5133845;27;20053;-72
2021/12/09 12:54:17;;;;;;;24.63;12.30;;;4.10;99.90;;;;;;5135035;27;20035;-72
2021/12/09 12:56:46;;;;;;;27.25;12.10;;;4.10;99.90;;;;;;5134748;27;20104;-72
2021/12/09 12:59:42;;;;;;;26.40;12.40;;;4.10;99.90;;;;;;5117115;27;20047;-71
2021/12/09 13:02:42;;;;;;;28.73;13.07;;;4.10;99.90;;;;;;5133961;27;20492;-72
2021/12/09 13:05:45;;;;;;;24.40;12.23;;;4.10;99.90;;;;;;5133789;27;20047;-72
2021/12/09 13:08:22;;;;;;;21.10;12.00;;;4.10;99.90;;;;;;5134313;27;20069;-73
2021/12/09 13:14:00;;;;;;;21.80;12.57;;;4.10;99.90;;;;;;5134510;27;20113;-74
2021/12/09 13:16:37;;;;;;;18.52;11.98;;;4.10;99.90;;;;;;5133849;27;20043;-73
2021/12/09 13:21:48;;;;;;;18.70;11.77;;;4.10;99.90;;;;;;5134903;27;20046;-73
2021/12/09 13:24:27;;;;;;;21.70;12.18;;;4.20;99.90;;;;;;5116345;27;20047;-72
2021/12/09 13:30:06;;;;;;;23.55;13.05;;;4.20;99.90;;;;;;5133198;27;20071;-73
2021/12/09 13:35:27;;;;;;;28.73;12.73;;;4.30;99.90;;;;;;5133461;27;20043;-73
2021/12/09 13:54:25;;;;;;;23.10;12.80;;;4.10;99.90;;;;;;5133335;27;20100;-72
2021/12/09 13:56:59;;;;;;;21.25;13.35;;;4.10;99.90;;;;;;5132775;27;20047;-72